createdAt,value
2019-03-16T00:03:43.496Z,13.83
2019-03-16T00:08:48.524Z,13.03
2019-03-16T00:13:53.226Z,11.10
2019-03-16T00:18:59.065Z,17.33
2019-03-16T00:24:03.690Z,15.10
2019-03-16T00:29:08.647Z,30.23
2019-03-16T00:34:13.413Z,15.03
2019-03-16T00:39:17.954Z,19.33
2019-03-16T00:44:23.870Z,16.67
2019-03-16T00:49:28.886Z,15.53
2019-03-16T00:54:33.568Z,12.30
2019-03-16T00:59:38.113Z,17.03
2019-03-16T01:04:42.744Z,19.83
2019-03-16T01:09:47.247Z,11.17
2019-03-16T01:14:51.947Z,11.53
2019-03-16T01:19:56.588Z,7.53
2019-03-16T01:25:01.223Z,17.93
2019-03-16T01:30:06.645Z,5.43
2019-03-16T01:35:11.728Z,8.40
2019-03-16T01:40:16.380Z,12.77
2019-03-16T01:45:21.544Z,11.30
2019-03-16T01:50:37.378Z,7.33
2019-03-16T01:55:42.234Z,9.53
2019-03-16T02:00:47.221Z,7.20
2019-03-16T02:05:51.779Z,7.23
2019-03-16T02:10:56.683Z,10.77
2019-03-16T02:16:10.829Z,8.57
2019-03-16T02:21:08.920Z,8.27
2019-03-16T02:26:13.559Z,6.63
2019-03-16T02:31:18.134Z,5.13
2019-03-16T02:36:22.620Z,5.53
2019-03-16T02:41:27.475Z,8.10
2019-03-16T02:46:32.026Z,7.07
2019-03-16T02:51:37.218Z,8.17
2019-03-16T02:56:42.046Z,5.10
2019-03-16T03:01:46.691Z,9.57
2019-03-16T03:06:51.411Z,6.80
2019-03-16T03:11:55.990Z,9.53
2019-03-16T03:17:00.730Z,6.33
2019-03-16T03:22:05.324Z,8.93
2019-03-16T03:27:10.980Z,6.03
2019-03-16T03:32:15.505Z,7.83
2019-03-16T03:37:23.307Z,5.50
2019-03-16T03:42:27.981Z,5.60
2019-03-16T03:47:33.591Z,9.97
2019-03-16T03:52:42.561Z,8.27
2019-03-16T03:57:48.940Z,6.50
2019-03-16T04:02:53.726Z,14.60
2019-03-16T04:07:59.067Z,13.13
2019-03-16T04:13:03.768Z,11.27
2019-03-16T04:18:09.492Z,9.10
2019-03-16T04:23:15.636Z,11.90
2019-03-16T04:28:20.311Z,7.90
2019-03-16T04:33:29.163Z,18.67
2019-03-16T04:38:33.758Z,8.83
2019-03-16T04:43:39.942Z,15.03
2019-03-16T04:48:44.664Z,11.07
2019-03-16T04:53:50.739Z,14.77
2019-03-16T04:58:55.636Z,7.63
2019-03-16T05:04:00.360Z,10.83
2019-03-16T05:09:06.811Z,15.97
2019-03-16T05:14:11.744Z,11.90
2019-03-16T05:19:18.725Z,8.23
2019-03-16T05:24:23.298Z,12.10
2019-03-16T05:29:27.774Z,10.13
2019-03-16T05:34:32.462Z,8.97
2019-03-16T05:39:37.502Z,11.93
2019-03-16T05:44:42.526Z,9.17
2019-03-16T05:49:47.618Z,7.73
2019-03-16T05:54:52.174Z,10.23
2019-03-16T05:59:56.713Z,10.60
2019-03-16T06:05:10.410Z,11.00
2019-03-16T06:10:10.023Z,7.70
2019-03-16T06:15:15.429Z,6.33
2019-03-16T06:20:23.582Z,7.97
2019-03-16T06:25:31.960Z,9.17
2019-03-16T06:30:37.640Z,9.97
2019-03-16T06:35:42.415Z,10.20
2019-03-16T06:40:47.026Z,10.40
2019-03-16T06:45:52.048Z,10.40
2019-03-16T06:50:56.878Z,4.80
2019-03-16T06:56:02.084Z,11.07
2019-03-16T07:01:06.619Z,5.07
2019-03-16T07:06:11.326Z,8.63
2019-03-16T07:11:16.509Z,6.03
2019-03-16T07:16:21.926Z,6.50
2019-03-16T07:21:26.598Z,5.70
2019-03-16T07:26:35.969Z,8.20
2019-03-16T07:31:41.337Z,7.40
2019-03-16T07:36:46.024Z,8.27
2019-03-16T07:41:51.299Z,7.03
2019-03-16T07:46:55.898Z,11.97
2019-03-16T07:52:01.190Z,5.83
2019-03-16T07:57:06.974Z,10.70
2019-03-16T08:02:12.822Z,5.67
2019-03-16T08:07:17.328Z,7.53
2019-03-16T08:12:22.025Z,4.13
2019-03-16T08:17:27.187Z,5.97
2019-03-16T08:22:35.732Z,4.30
2019-03-16T08:27:53.028Z,3.93
2019-03-16T08:32:48.311Z,3.80
2019-03-16T08:37:56.055Z,5.37
2019-03-16T08:43:01.222Z,3.17
2019-03-16T08:48:06.602Z,8.10
2019-03-16T08:53:11.245Z,3.80
2019-03-16T08:58:16.059Z,2.17
2019-03-16T09:03:20.868Z,3.73
2019-03-16T09:08:26.385Z,3.93
2019-03-16T09:13:32.093Z,6.93
2019-03-16T09:18:36.733Z,3.67
2019-03-16T09:23:41.743Z,6.47
2019-03-16T09:28:59.408Z,5.07
2019-03-16T09:33:55.248Z,3.53
2019-03-16T09:39:02.493Z,4.27
2019-03-16T09:44:08.452Z,4.57
2019-03-16T09:49:12.930Z,3.13
2019-03-16T09:54:17.899Z,2.93
2019-03-16T09:59:23.406Z,2.87
2019-03-16T10:04:30.478Z,4.17
2019-03-16T10:09:35.024Z,5.73
2019-03-16T10:14:58.742Z,3.50
2019-03-16T10:20:04.673Z,4.07
2019-03-16T10:25:09.583Z,7.13
2019-03-16T10:30:20.068Z,3.50
2019-03-16T10:35:27.709Z,4.10
2019-03-16T10:40:32.491Z,4.13
2019-03-16T10:45:37.143Z,4.63
2019-03-16T10:50:42.124Z,2.43
2019-03-16T10:55:48.101Z,2.83
2019-03-16T11:00:52.970Z,2.57
2019-03-16T11:05:58.058Z,4.03
2019-03-16T11:11:02.532Z,1.87
2019-03-16T11:16:08.348Z,2.47
2019-03-16T11:21:19.545Z,4.10
2019-03-16T11:26:24.264Z,1.73
2019-03-16T11:31:29.346Z,3.60
2019-03-16T11:36:35.913Z,3.03
2019-03-16T11:41:41.574Z,4.53
2019-03-16T11:46:46.426Z,2.50
2019-03-16T11:51:51.347Z,2.70
2019-03-16T11:56:56.212Z,3.87
2019-03-16T12:02:05.521Z,3.00
2019-03-16T12:07:10.989Z,1.90
2019-03-16T12:12:16.685Z,1.67
2019-03-16T12:17:22.898Z,3.10
2019-03-16T12:22:27.481Z,2.60
2019-03-16T12:27:33.131Z,3.03
2019-03-16T12:32:38.005Z,2.60
2019-03-16T12:37:43.385Z,3.67
2019-03-16T12:42:52.864Z,3.63
2019-03-16T12:48:00.569Z,4.23
2019-03-16T12:53:26.486Z,2.73
2019-03-16T12:58:33.156Z,1.40
2019-03-16T13:03:41.881Z,3.77
2019-03-16T13:08:48.581Z,4.40
2019-03-16T13:13:54.126Z,2.53
2019-03-16T13:18:59.322Z,2.83
2019-03-16T13:24:04.445Z,3.23
2019-03-16T13:29:09.419Z,5.50
2019-03-16T13:34:14.799Z,3.00
2019-03-16T13:39:22.551Z,1.30
2019-03-16T13:44:27.120Z,2.60
2019-03-16T13:49:31.928Z,4.47
2019-03-16T13:54:38.132Z,2.43
2019-03-16T13:59:44.684Z,2.17
2019-03-16T14:04:49.567Z,6.13
2019-03-16T14:09:54.552Z,11.97
2019-03-16T14:14:59.281Z,15.03
2019-03-16T14:20:04.554Z,8.80
2019-03-16T14:30:44.804Z,2.13
2019-03-16T14:35:47.814Z,9.30
2019-03-16T14:40:53.017Z,2.47
2019-03-16T14:45:59.943Z,2.90
2019-03-16T14:51:04.879Z,4.07
2019-03-16T14:56:11.609Z,1.30
2019-03-16T15:01:16.990Z,2.63
2019-03-16T15:06:24.818Z,4.30
2019-03-16T15:11:29.440Z,5.67
2019-03-16T15:16:34.035Z,2.20
2019-03-16T15:21:39.524Z,2.43
2019-03-16T15:26:44.331Z,2.70
2019-03-16T15:31:49.813Z,3.40
2019-03-16T15:36:54.420Z,5.70
2019-03-16T15:42:02.011Z,4.10
2019-03-16T15:47:06.655Z,2.60
2019-03-16T15:52:11.564Z,3.70
2019-03-16T15:57:16.274Z,2.33
2019-03-16T16:02:22.199Z,3.10
2019-03-16T16:07:28.145Z,3.00
2019-03-16T16:12:33.042Z,3.40
2019-03-16T16:17:40.237Z,4.53
2019-03-16T16:22:46.237Z,2.83
2019-03-16T16:27:51.033Z,6.57
2019-03-16T16:32:56.594Z,2.73
2019-03-16T16:38:01.744Z,3.83
2019-03-16T16:43:09.613Z,3.73
2019-03-16T16:48:17.929Z,4.43
2019-03-16T16:53:22.810Z,6.70
2019-03-16T16:58:27.451Z,14.03
2019-03-16T17:03:32.715Z,9.47
2019-03-16T17:08:37.470Z,9.17
2019-03-16T17:13:43.070Z,6.70
2019-03-16T17:18:49.498Z,8.30
2019-03-16T17:23:54.237Z,5.37
2019-03-16T17:29:00.011Z,5.40
2019-03-16T17:34:04.992Z,6.33
2019-03-16T17:39:10.161Z,4.40
2019-03-16T17:44:14.865Z,4.10
2019-03-16T17:49:19.503Z,6.00
2019-03-16T17:54:24.503Z,6.13
2019-03-16T17:59:31.434Z,6.20
2019-03-16T18:04:35.942Z,5.83
2019-03-16T18:09:40.511Z,3.77
2019-03-16T18:14:46.181Z,4.60
2019-03-16T18:19:54.856Z,2.87
2019-03-16T18:24:59.588Z,5.23
2019-03-16T18:30:05.122Z,6.33
2019-03-16T18:35:09.799Z,2.50
2019-03-16T18:40:18.683Z,3.27
2019-03-16T18:45:23.321Z,4.80
2019-03-16T18:50:30.719Z,4.77
2019-03-16T18:55:35.355Z,5.43
2019-03-16T19:00:40.259Z,3.60
2019-03-16T19:05:44.873Z,5.63
2019-03-16T19:10:49.645Z,4.00
2019-03-16T19:15:54.250Z,4.93
2019-03-16T19:21:00.432Z,4.20
2019-03-16T19:26:14.190Z,5.20
2019-03-16T19:31:20.541Z,8.40
2019-03-16T19:36:25.443Z,4.30
2019-03-16T19:41:30.613Z,8.03
2019-03-16T19:46:36.202Z,6.20
2019-03-16T19:51:42.098Z,7.20
2019-03-16T19:56:47.915Z,5.53
2019-03-16T20:01:54.663Z,5.10
2019-03-16T20:06:59.281Z,4.90
2019-03-16T20:12:05.009Z,5.53
2019-03-16T20:17:09.806Z,11.03
2019-03-16T20:22:14.525Z,6.00
2019-03-16T20:27:19.660Z,6.37
2019-03-16T20:32:24.313Z,5.27
2019-03-16T20:37:28.911Z,2.87
2019-03-16T20:42:34.024Z,5.93
2019-03-16T20:47:44.835Z,6.97
2019-03-16T20:52:50.193Z,5.30
2019-03-16T20:57:55.395Z,5.10
2019-03-16T21:03:01.500Z,5.90
2019-03-16T21:08:07.369Z,6.33
2019-03-16T21:13:13.430Z,3.73
2019-03-16T21:18:22.013Z,5.90
2019-03-16T21:23:26.975Z,5.17
2019-03-16T21:28:37.990Z,6.10
2019-03-16T21:33:44.814Z,9.47
2019-03-16T21:38:49.339Z,7.03
2019-03-16T21:43:55.053Z,10.37
2019-03-16T21:49:01.068Z,4.40
2019-03-16T21:54:06.624Z,3.77
2019-03-16T21:59:12.930Z,5.87
2019-03-16T22:04:28.874Z,3.07
2019-03-16T22:09:38.960Z,5.47
2019-03-16T22:14:45.373Z,3.83
2019-03-16T22:20:37.975Z,5.30
2019-03-16T22:25:44.835Z,4.90
2019-03-16T22:30:52.547Z,4.30
2019-03-16T22:35:57.468Z,3.37
2019-03-16T22:41:03.488Z,3.43
2019-03-16T22:46:11.359Z,6.23
2019-03-16T22:51:16.122Z,3.73
2019-03-16T22:56:20.909Z,4.20
2019-03-16T23:01:25.766Z,3.47
2019-03-16T23:06:33.691Z,4.63
2019-03-16T23:11:38.397Z,4.80
2019-03-16T23:21:46.145Z,4.03
2019-03-16T23:26:50.943Z,3.67
2019-03-16T23:31:55.859Z,7.27
2019-03-16T23:37:00.538Z,4.77
2019-03-16T23:42:05.175Z,6.20
2019-03-16T23:47:09.794Z,4.17
2019-03-16T23:52:14.512Z,6.23
2019-03-16T23:57:19.359Z,5.57
